createdAt,value
2023-03-29T00:01:52.581Z,77.96
2023-03-29T00:12:30.506Z,80.44
2023-03-29T00:17:49.875Z,80.71
2023-03-29T00:28:28.357Z,81.33
2023-03-29T00:44:25.791Z,81.95
2023-03-29T00:55:04.136Z,81.6
2023-03-29T01:00:23.825Z,82.4
2023-03-29T01:11:03.266Z,82.53
2023-03-29T01:16:22.649Z,82.96
2023-03-29T01:21:41.387Z,84.84
2023-03-29T01:27:01.057Z,85.44
2023-03-29T01:37:39.623Z,84.33
2023-03-29T01:42:58.444Z,84.03
2023-03-29T01:53:37.158Z,83.55
2023-03-29T02:04:15.343Z,81.3
2023-03-29T02:09:34.346Z,81.31
2023-03-29T02:20:13.225Z,82.62
2023-03-29T02:25:32.879Z,82.19
2023-03-29T02:36:12.299Z,81.82
2023-03-29T02:41:31.309Z,81.82
2023-03-29T02:52:09.755Z,81.53
2023-03-29T03:02:48.943Z,80.4
2023-03-29T03:08:08.378Z,80.19
2023-03-29T03:18:46.202Z,79.35
2023-03-29T03:24:05.655Z,79.26
2023-03-29T03:34:44.412Z,79.32
2023-03-29T03:45:22.373Z,79.44
2023-03-29T03:50:41.811Z,79.58
2023-03-29T04:01:20.293Z,79.62
2023-03-29T04:11:58.513Z,79.24
2023-03-29T04:22:36.588Z,79.19
2023-03-29T04:27:55.921Z,78.89
2023-03-29T04:38:33.995Z,82.24
2023-03-29T04:43:53.108Z,82.39
2023-03-29T04:54:31.924Z,82.8
2023-03-29T04:59:51.443Z,83.6
2023-03-29T05:05:11.013Z,83.2
2023-03-29T05:10:30.391Z,81.68
2023-03-29T05:21:08.249Z,80.47
2023-03-29T05:26:27.308Z,80.35
2023-03-29T05:37:06.548Z,79.48
2023-03-29T05:42:25.729Z,78.8
2023-03-29T05:53:03.768Z,77.5
2023-03-29T06:03:42.857Z,76.58
2023-03-29T06:09:01.746Z,75.42
2023-03-29T06:19:40.162Z,74.39
2023-03-29T06:25:08.423Z,74.06
2023-03-29T06:35:38.764Z,73.91
2023-03-29T06:46:16.911Z,74.16
2023-03-29T06:51:36.024Z,71.92
2023-03-29T07:02:14.856Z,69.05
2023-03-29T07:07:33.734Z,67.75
2023-03-29T07:18:11.560Z,67.49
2023-03-29T07:28:49.879Z,64.51
2023-03-29T07:34:09.117Z,65.15
2023-03-29T07:44:47.878Z,64.92
2023-03-29T07:50:06.837Z,64.31
2023-03-29T08:00:45.210Z,63.22
2023-03-29T08:16:42.929Z,62.45
2023-03-29T08:27:21.878Z,60.67
2023-03-29T08:32:41.451Z,60.62
2023-03-29T08:43:20.145Z,61.46
2023-03-29T08:48:39.156Z,60.77
2023-03-29T08:53:58.702Z,59.62
2023-03-29T08:59:17.890Z,60.29
2023-03-29T09:09:55.831Z,59.66
2023-03-29T09:15:14.731Z,60.7
2023-03-29T09:25:54.339Z,59.96
2023-03-29T09:31:12.781Z,59.04
2023-03-29T09:41:51.115Z,59.91
2023-03-29T09:52:30.006Z,60.61
2023-03-29T09:57:49.572Z,62.15
2023-03-29T10:08:28.782Z,60.65
2023-03-29T10:13:48.343Z,61.29
2023-03-29T10:24:27.284Z,60.68
2023-03-29T10:29:46.209Z,60.84
2023-03-29T10:40:24.634Z,62.35
2023-03-29T10:46:58.786Z,63.49
2023-03-29T10:51:15.395Z,65.26
2023-03-29T11:01:43.139Z,64.83
2023-03-29T11:07:02.274Z,64.44
2023-03-29T11:17:41.143Z,64.31
2023-03-29T11:28:19.297Z,64.51
2023-03-29T11:33:38.866Z,64.04
2023-03-29T11:44:16.589Z,65.19
2023-03-29T11:49:35.715Z,64.64
2023-03-29T12:00:14.029Z,62.78
2023-03-29T12:05:33.205Z,61.67
2023-03-29T12:16:10.115Z,60.41
2023-03-29T12:26:48.815Z,58.67
2023-03-29T12:32:08.013Z,59.23
2023-03-29T12:42:47.024Z,55.31
2023-03-29T12:48:05.990Z,55.29
2023-03-29T12:58:45.115Z,51.84
2023-03-29T13:09:23.201Z,54.9
2023-03-29T13:14:42.093Z,55.32
2023-03-29T13:25:19.922Z,52.64
2023-03-29T13:30:39.164Z,53.58
2023-03-29T13:41:16.952Z,50.43
2023-03-29T13:57:13.668Z,50.08
2023-03-29T14:07:52.020Z,51.51
2023-03-29T14:13:11.269Z,52.75
2023-03-29T14:23:49.572Z,51.99
2023-03-29T14:29:34.820Z,51.07
2023-03-29T14:40:13.081Z,53.4
2023-03-29T14:45:31.920Z,49.85
2023-03-29T14:56:10.222Z,48.84
2023-03-29T15:01:29.837Z,50.09
2023-03-29T15:06:48.788Z,51.01
2023-03-29T15:12:07.573Z,50.12
2023-03-29T15:22:45.579Z,51.56
2023-03-29T15:28:04.647Z,50.44
2023-03-29T15:38:44.878Z,51.12
2023-03-29T15:44:03.045Z,52.1
2023-03-29T15:54:42.202Z,53.06
2023-03-29T16:10:39.911Z,54.53
2023-03-29T16:21:17.583Z,54.85
2023-03-29T16:26:37.171Z,54.85
2023-03-29T16:37:15.906Z,57.38
2023-03-29T16:42:35.563Z,59.19
2023-03-29T16:53:14.344Z,60.83
2023-03-29T17:03:52.438Z,62.31
2023-03-29T17:09:12.123Z,62.87
2023-03-29T17:19:49.838Z,63.34
2023-03-29T17:25:09.054Z,64.01
2023-03-29T17:41:06.719Z,64.48
2023-03-29T17:46:26.129Z,64.19
2023-03-29T17:57:04.468Z,64.01
2023-03-29T18:02:23.500Z,63.91
2023-03-29T18:13:01.177Z,63.92
2023-03-29T18:18:20.871Z,63.96
2023-03-29T18:28:58.790Z,64.73
2023-03-29T18:39:37.412Z,66.17
2023-03-29T18:44:56.680Z,67.19
2023-03-29T18:55:35.157Z,69.12
2023-03-29T19:00:54.359Z,69.07
2023-03-29T19:06:13.553Z,68.73
2023-03-29T19:11:33.177Z,70.08
2023-03-29T19:22:11.634Z,70.12
2023-03-29T19:27:30.422Z,69.44
2023-03-29T19:38:08.637Z,68.98
2023-03-29T19:43:27.497Z,68.92
2023-03-29T19:48:46.408Z,69.01
2023-03-29T19:54:05.205Z,68.5
2023-03-29T20:04:43.979Z,69.57
2023-03-29T20:10:02.774Z,69.89
2023-03-29T20:20:42.099Z,70.23
2023-03-29T20:26:01.197Z,70.18
2023-03-29T20:36:39.961Z,69.51
2023-03-29T20:47:18.646Z,68.73
2023-03-29T20:52:37.581Z,68.81
2023-03-29T21:03:16.816Z,68.62
2023-03-29T21:08:36.260Z,68.74
2023-03-29T21:19:15.058Z,66.58
2023-03-29T21:24:34.329Z,65.58
2023-03-29T21:29:53.792Z,65.29
2023-03-29T21:35:12.745Z,66.33
2023-03-29T21:45:51.481Z,67.46
2023-03-29T21:51:10.359Z,65.87
2023-03-29T22:01:48.007Z,64.33
2023-03-29T22:07:07.617Z,63.08
2023-03-29T22:17:45.167Z,61.07
2023-03-29T22:28:23.959Z,60.05
2023-03-29T22:33:43.248Z,59.04
2023-03-29T22:44:21.273Z,59.59
2023-03-29T22:49:40.692Z,59.65
2023-03-29T23:00:19.816Z,59.41
2023-03-29T23:10:58.728Z,60.14
2023-03-29T23:16:18.452Z,60.54
2023-03-29T23:26:56.657Z,61.06
2023-03-29T23:32:15.959Z,60.27
2023-03-29T23:37:34.445Z,59.9
2023-03-29T23:42:53.641Z,59.23
2023-03-29T23:53:32.357Z,58.33
2023-03-29T23:58:51.597Z,58.18
